Cranbury, NJ

9:26 AM EDT on September 21, 2014 (GMT -0400)
Cranbury, NJ | Change Station
CLOSE
Current Station
Personal Weather Station
Location: Cranbury, NJ
Elevation: 125 ft
Nearby Weather Stations

Elev 125 ft 40.30 °N, 74.52 °W | Updated 15 seconds ago

Overcast
Overcast
69.3 °F
Feels Like 69.3 °F
N
0.0
Wind Variable Wind from ENE
Gusts 1.6 mph

Today
High -- | Low -- °F
--% Chance of Precip.
Yesterday
High -- | Low -- °F
Precip. -- in
6:44 AM 6:56 PM
Waning Crescent, 7% visible
Pressure 29.87 in
Visibility 1.0 miles
Clouds Overcast 200 ft
Dew Point 68 °F
Humidity 97%
Rainfall 0.00 in
Snow Depth Not available.
UV 1 out of 12
Pollen 2.60 out of 12
Air Quality Not available.
Flu Activity Not available.
METAR KTTN 211253Z 35004KT 1SM BR OVC002 19/18 A2989 RMK AO2 SLP113 T01890178

More Conditions Fewer Conditions

Pressure 29.87 in
Visibility 1.0 miles
Clouds Overcast 200 ft
Dew Point 68 °F
Humidity 97%
Rainfall 0.00 in
Snow Depth Not available.
UV 1 out of 12
Pollen 2.60 out of 12
Air Quality Not available.
Flu Activity Not available.
METAR KTTN 211253Z 35004KT 1SM BR OVC002 19/18 A2989 RMK AO2 SLP113 T01890178

More Conditions Fewer Conditions

10-Day Weather Forecast

Almanac

Astronomy

Sep. 21, 2014 Rise Set
Actual Time 6:44 AM EDT 6:56 PM EDT
Civil Twilight 6:17 AM EDT 7:24 PM EDT
Nautical Twilight 5:45 AM EDT 7:55 PM EDT
Astronomical Twilight 5:13 AM EDT 8:28 PM EDT
Moon 4:15 AM EDT 5:31 PM EDT
Length of Visible Light 13h 06m
Length of Day
12h 12m
Tomorrow will be 2m 38s shorter.
Waning Crescent, 7% of the Moon is Illuminated
Today
Waning Crescent
Sep 24
New
Oct 1
First Quarter
Oct 8
Full
Oct 15
Last Quarter

Today's Extremes

State Highs State Lows

Community

WunderPhotos

Upload Photos

1,755,138 photos uploaded!

WunderBlogs® & News

Nearby

Snow Depth

Station Depth Elevation
No new snow has been reported.

Earthquake Activity

City Distance Mag. Time & Date
No recent earthquake activity has been reported nearby.
Minimum magnitude displayed is 2.5.

Coastal Water Temperatures

Place Temperature
Sandy Hook, NJ 69.1 °F
The Battery, NY 70.0 °F
Bergen Point West Reach, NJ 70.0 °F

Nearby Weather Stations